createdAt,value
2019-03-21T04:16:14.041Z,99.90
2019-03-21T04:18:43.583Z,99.90
2019-03-21T04:21:13.288Z,99.90
2019-03-21T04:23:42.827Z,99.90
2019-03-21T04:26:22.305Z,99.90
2019-03-21T04:28:52.011Z,99.90
2019-03-21T04:31:21.618Z,99.90
2019-03-21T04:33:52.378Z,99.90
2019-03-21T04:36:22.014Z,99.90
2019-03-21T04:38:51.582Z,99.90
2019-03-21T04:41:21.095Z,99.90
2019-03-21T04:43:50.561Z,99.90
2019-03-21T04:46:20.171Z,99.90
2019-03-21T04:48:49.739Z,99.90
2019-03-21T04:51:19.189Z,99.90
2019-03-21T04:53:48.738Z,99.90
2019-03-21T04:56:18.274Z,99.90
2019-03-21T04:58:47.874Z,99.90
2019-03-21T05:01:17.383Z,99.90
2019-03-21T05:03:46.843Z,99.90
2019-03-21T05:06:16.373Z,99.90
2019-03-21T05:08:45.903Z,99.90
2019-03-21T05:11:15.362Z,99.90
2019-03-21T05:13:44.867Z,99.90
2019-03-21T05:16:15.203Z,99.90
2019-03-21T05:18:45.587Z,99.90
2019-03-21T05:21:16.006Z,99.90
2019-03-21T05:23:45.555Z,99.90
2019-03-21T05:26:15.253Z,99.90
2019-03-21T05:28:44.793Z,99.90
2019-03-21T05:31:17.872Z,99.90
2019-03-21T05:33:47.314Z,99.90
2019-03-21T05:36:16.755Z,99.90
2019-03-21T05:38:46.243Z,99.90
2019-03-21T05:41:15.911Z,99.90
2019-03-21T05:43:48.902Z,99.90
2019-03-21T05:46:26.432Z,99.90
2019-03-21T05:48:49.921Z,99.90
2019-03-21T05:51:19.588Z,99.90
2019-03-21T05:53:49.107Z,99.90
2019-03-21T05:56:18.739Z,99.90
2019-03-21T05:58:48.276Z,99.90
2019-03-21T06:01:17.796Z,99.90
2019-03-21T06:03:50.916Z,99.90
2019-03-21T06:06:47.699Z,99.90
2019-03-21T06:09:18.769Z,99.90
2019-03-21T06:11:52.076Z,99.90
2019-03-21T06:14:21.557Z,99.90
2019-03-21T06:16:51.339Z,99.90
2019-03-21T06:19:51.202Z,99.90
2019-03-21T06:23:01.374Z,99.90
2019-03-21T06:26:09.650Z,99.90
2019-03-21T06:28:39.238Z,99.90
2019-03-21T06:31:08.855Z,99.90
2019-03-21T06:33:38.464Z,99.90
2019-03-21T06:36:07.975Z,99.90
2019-03-21T06:38:37.548Z,99.90
2019-03-21T06:41:07.139Z,99.90
2019-03-21T06:43:36.688Z,99.90
2019-03-21T06:46:06.281Z,99.90
2019-03-21T06:48:35.818Z,99.90
2019-03-21T06:51:05.435Z,99.90
2019-03-21T06:53:34.925Z,99.90
2019-03-21T06:56:04.583Z,99.90
2019-03-21T06:58:34.098Z,99.90
2019-03-21T07:01:03.781Z,99.90
2019-03-21T07:03:33.294Z,99.90
2019-03-21T07:06:02.878Z,99.90
2019-03-21T07:08:32.462Z,99.90
2019-03-21T07:11:01.971Z,99.90
2019-03-21T07:13:31.559Z,99.90
2019-03-21T07:16:01.015Z,99.90
2019-03-21T07:18:30.585Z,99.90
2019-03-21T07:21:01.193Z,99.90
2019-03-21T07:23:30.938Z,99.90
2019-03-21T07:26:00.418Z,99.90
2019-03-21T07:28:29.934Z,99.90
2019-03-21T07:30:59.513Z,99.90
2019-03-21T07:33:29.259Z,99.90
2019-03-21T07:35:58.705Z,99.90
2019-03-21T07:38:29.516Z,99.90
2019-03-21T07:40:58.960Z,99.90
2019-03-21T07:43:28.534Z,99.90
2019-03-21T07:45:58.059Z,99.90
2019-03-21T07:48:27.586Z,99.90
2019-03-21T07:50:57.203Z,99.90
2019-03-21T07:53:26.815Z,99.60
2019-03-21T07:55:56.371Z,97.70
2019-03-21T07:58:25.866Z,96.50
2019-03-21T08:00:55.295Z,97.70
2019-03-21T08:03:24.827Z,96.50
2019-03-21T08:05:54.331Z,97.30
2019-03-21T08:08:23.835Z,95.70
2019-03-21T08:10:53.391Z,95.50
2019-03-21T08:13:22.995Z,96.30
2019-03-21T08:15:52.433Z,95.10
2019-03-21T08:18:21.909Z,93.90
2019-03-21T08:20:57.245Z,94.00
2019-03-21T08:23:22.786Z,93.10
2019-03-21T08:25:52.405Z,93.70
2019-03-21T08:28:21.831Z,92.30
2019-03-21T08:31:25.763Z,93.10
2019-03-21T08:33:55.714Z,92.70
2019-03-21T08:36:25.290Z,92.50
2019-03-21T08:38:54.818Z,92.70
2019-03-21T08:41:24.429Z,91.30
2019-03-21T08:43:53.995Z,91.70
2019-03-21T08:46:23.676Z,91.40
2019-03-21T08:48:53.129Z,91.20
2019-03-21T08:51:22.706Z,90.00
2019-03-21T08:53:52.138Z,90.60
2019-03-21T08:56:21.751Z,88.40
2019-03-21T08:58:51.269Z,88.50
2019-03-21T09:01:20.819Z,86.70
2019-03-21T09:03:50.369Z,87.30
2019-03-21T09:06:20.086Z,89.10
2019-03-21T09:08:49.618Z,86.30
2019-03-21T09:11:19.314Z,87.50
2019-03-21T09:13:48.796Z,84.30
2019-03-21T09:16:18.416Z,82.80
2019-03-21T09:18:48.047Z,82.70
2019-03-21T09:21:19.875Z,83.70
2019-03-21T09:23:48.976Z,84.70
2019-03-21T09:26:18.454Z,82.10
2019-03-21T09:28:47.902Z,81.00
2019-03-21T09:31:17.446Z,78.80
2019-03-21T09:33:46.909Z,78.50
2019-03-21T09:36:16.559Z,77.10
2019-03-21T09:38:46.119Z,74.80
2019-03-21T09:41:15.676Z,76.30
2019-03-21T09:43:45.120Z,78.10
2019-03-21T09:46:14.758Z,77.70
2019-03-21T09:48:44.387Z,74.80
2019-03-21T09:51:13.910Z,70.80
2019-03-21T09:53:43.545Z,73.30
2019-03-21T09:56:13.135Z,69.50
2019-03-21T09:58:42.716Z,67.60
2019-03-21T10:01:12.227Z,66.80
2019-03-21T10:03:41.834Z,64.50
2019-03-21T10:06:11.308Z,65.40
2019-03-21T10:08:40.790Z,62.10
2019-03-21T10:11:10.416Z,59.00
2019-03-21T10:13:39.954Z,56.80
2019-03-21T10:16:09.423Z,56.00
2019-03-21T10:18:38.901Z,54.40
2019-03-21T10:21:08.517Z,54.40
2019-03-21T10:23:37.954Z,53.90
2019-03-21T10:26:07.552Z,52.90
2019-03-21T10:28:37.084Z,53.00
2019-03-21T10:31:06.878Z,49.00
2019-03-21T10:33:36.322Z,51.30
2019-03-21T10:36:05.945Z,51.70
2019-03-21T10:38:35.761Z,52.70
2019-03-21T10:41:05.441Z,52.10
2019-03-21T10:43:35.092Z,53.00
2019-03-21T10:46:04.766Z,50.90
2019-03-21T10:48:34.274Z,51.00
2019-03-21T10:51:03.883Z,48.70
2019-03-21T10:53:33.478Z,50.70
2019-03-21T10:56:03.015Z,51.30
2019-03-21T10:58:32.593Z,52.00
2019-03-21T11:01:02.202Z,52.20
2019-03-21T11:03:31.818Z,52.80
2019-03-21T11:06:01.364Z,51.50
2019-03-21T11:08:30.890Z,52.60
2019-03-21T11:11:00.549Z,52.90
2019-03-21T11:13:30.271Z,52.60
2019-03-21T11:15:59.847Z,53.20
2019-03-21T11:18:36.060Z,52.40
2019-03-21T11:21:00.551Z,53.00
2019-03-21T11:23:30.022Z,51.50
2019-03-21T11:25:59.762Z,51.40
2019-03-21T11:28:29.259Z,51.20
2019-03-21T11:30:58.799Z,51.70
2019-03-21T11:33:28.389Z,51.70
2019-03-21T11:35:57.838Z,50.90
2019-03-21T11:38:27.303Z,49.30
2019-03-21T11:40:56.751Z,50.90
2019-03-21T11:43:26.298Z,50.30
2019-03-21T11:45:55.835Z,49.70
2019-03-21T11:48:25.507Z,49.70
2019-03-21T11:50:55.148Z,49.50
2019-03-21T11:53:24.759Z,48.90
2019-03-21T11:55:54.375Z,48.80
2019-03-21T11:58:24.037Z,47.50
2019-03-21T12:00:53.570Z,48.70
2019-03-21T12:03:24.302Z,45.40
2019-03-21T12:05:54.094Z,46.10
2019-03-21T12:08:23.656Z,46.10
2019-03-21T12:10:53.206Z,45.70
2019-03-21T12:13:22.779Z,47.20
2019-03-21T12:15:52.370Z,46.80
2019-03-21T12:18:21.908Z,46.80
2019-03-21T12:20:51.439Z,46.70
2019-03-21T12:23:21.066Z,46.90
2019-03-21T12:25:50.559Z,46.60
2019-03-21T12:28:20.143Z,46.60
2019-03-21T12:30:49.619Z,46.20
2019-03-21T12:33:19.241Z,45.00
2019-03-21T12:35:48.837Z,43.00
2019-03-21T12:38:18.417Z,43.80
2019-03-21T12:40:47.856Z,43.40
2019-03-21T12:43:17.406Z,44.00
2019-03-21T12:45:46.887Z,44.50
2019-03-21T12:48:16.418Z,45.70
2019-03-21T12:50:45.903Z,44.60
2019-03-21T12:53:15.531Z,43.70
2019-03-21T12:55:45.103Z,41.90
2019-03-21T12:58:14.650Z,43.20
2019-03-21T13:00:44.936Z,43.50
2019-03-21T13:03:14.730Z,46.90
2019-03-21T13:05:44.802Z,43.10
2019-03-21T13:08:14.599Z,44.00
2019-03-21T13:10:44.157Z,44.20
2019-03-21T13:13:13.812Z,45.70
2019-03-21T13:15:43.438Z,44.00
2019-03-21T13:18:13.109Z,45.10
2019-03-21T13:20:42.634Z,44.30
2019-03-21T13:23:12.247Z,44.20
2019-03-21T13:25:41.802Z,44.00
2019-03-21T13:28:11.416Z,42.70
2019-03-21T13:30:41.013Z,43.10
2019-03-21T13:33:10.637Z,43.10
2019-03-21T13:35:40.090Z,42.60
2019-03-21T13:38:09.689Z,43.50
2019-03-21T13:40:39.246Z,44.30
2019-03-21T13:43:11.185Z,43.00
2019-03-21T13:45:40.045Z,43.50
2019-03-21T13:48:09.639Z,42.80
2019-03-21T13:50:39.225Z,42.70
2019-03-21T13:53:18.258Z,42.10
2019-03-21T13:55:40.026Z,41.30
2019-03-21T13:58:09.598Z,42.30
2019-03-21T14:00:40.932Z,43.70
2019-03-21T14:03:10.303Z,43.30
2019-03-21T14:05:39.764Z,42.70
2019-03-21T14:08:09.285Z,43.50
2019-03-21T14:10:39.019Z,43.50
2019-03-21T14:13:08.570Z,43.90
2019-03-21T14:15:38.194Z,41.30
2019-03-21T14:18:07.854Z,42.70
2019-03-21T14:20:37.399Z,42.70
2019-03-21T14:23:16.583Z,41.80
2019-03-21T14:25:38.164Z,41.20
2019-03-21T14:28:07.854Z,41.10
2019-03-21T14:30:37.702Z,40.40
2019-03-21T14:33:08.301Z,40.60
2019-03-21T14:35:38.068Z,40.30
2019-03-21T14:38:07.516Z,40.80
2019-03-21T14:40:37.025Z,40.90
2019-03-21T14:43:06.631Z,41.50
2019-03-21T14:45:36.455Z,40.70
2019-03-21T14:48:06.070Z,40.80
2019-03-21T14:50:35.498Z,40.50
2019-03-21T14:53:05.177Z,42.50
2019-03-21T14:55:46.815Z,41.70
2019-03-21T14:58:06.301Z,40.00
2019-03-21T15:00:35.745Z,41.70
2019-03-21T15:03:05.344Z,40.70
2019-03-21T15:05:34.994Z,40.20
2019-03-21T15:08:04.590Z,41.10
2019-03-21T15:10:34.122Z,39.90
2019-03-21T15:13:03.728Z,39.90
2019-03-21T15:15:33.551Z,40.70
2019-03-21T15:18:03.904Z,40.50
2019-03-21T15:20:33.941Z,40.30
2019-03-21T15:23:03.597Z,41.50
2019-03-21T15:25:33.433Z,41.00
2019-03-21T15:28:03.096Z,41.20
2019-03-21T15:30:32.612Z,41.50
2019-03-21T15:33:02.579Z,41.60
2019-03-21T15:35:32.240Z,42.40
2019-03-21T15:38:01.806Z,43.70
2019-03-21T15:40:31.510Z,44.20
2019-03-21T15:43:01.046Z,45.50
2019-03-21T15:45:30.680Z,47.30
2019-03-21T15:48:00.391Z,47.50
2019-03-21T15:50:31.914Z,47.20
2019-03-21T15:53:01.654Z,47.80
2019-03-21T15:55:31.250Z,47.70
2019-03-21T15:58:00.894Z,48.30
2019-03-21T16:00:35.327Z,48.50
2019-03-21T16:03:05.733Z,48.50
2019-03-21T16:05:35.720Z,49.30
2019-03-21T16:08:05.523Z,49.30
2019-03-21T16:10:35.644Z,49.80
2019-03-21T16:13:05.642Z,50.10
2019-03-21T16:15:35.439Z,50.30
2019-03-21T16:18:05.377Z,51.20
2019-03-21T16:20:35.175Z,52.20
2019-03-21T16:23:04.816Z,52.20
2019-03-21T16:25:34.636Z,51.80
2019-03-21T16:28:04.227Z,51.90
2019-03-21T16:30:33.805Z,52.00
2019-03-21T16:33:03.411Z,52.80
2019-03-21T16:35:32.883Z,54.40
2019-03-21T16:38:02.611Z,53.90
2019-03-21T16:40:32.229Z,54.10
2019-03-21T16:43:01.730Z,53.60
2019-03-21T16:45:31.202Z,54.00
2019-03-21T16:48:00.743Z,53.50
2019-03-21T16:50:30.226Z,53.50
2019-03-21T16:52:59.686Z,53.50
2019-03-21T16:55:29.239Z,53.80
2019-03-21T16:57:58.711Z,53.90
2019-03-21T17:00:28.434Z,54.50
2019-03-21T17:02:58.114Z,55.40
2019-03-21T17:05:27.783Z,55.30
2019-03-21T17:07:57.267Z,55.70
2019-03-21T17:10:26.944Z,56.30
2019-03-21T17:12:56.513Z,56.70
2019-03-21T17:15:26.059Z,57.30
2019-03-21T17:17:55.740Z,57.90
2019-03-21T17:20:25.316Z,57.90
2019-03-21T17:22:55.111Z,58.40
2019-03-21T17:25:24.726Z,59.70
2019-03-21T17:27:54.926Z,59.20
2019-03-21T17:30:24.719Z,59.80
2019-03-21T17:32:54.268Z,59.50
2019-03-21T17:35:23.731Z,60.20
2019-03-21T17:37:53.337Z,59.60
2019-03-21T17:40:22.984Z,59.50
2019-03-21T17:42:52.430Z,59.30
2019-03-21T17:45:21.871Z,59.70
2019-03-21T17:47:51.400Z,60.40
2019-03-21T17:50:20.995Z,60.50
2019-03-21T17:52:50.492Z,60.60
2019-03-21T17:55:20.035Z,60.90
2019-03-21T17:57:49.554Z,61.30
2019-03-21T18:00:21.143Z,61.80
2019-03-21T18:02:50.758Z,62.00
2019-03-21T18:05:20.338Z,62.40
2019-03-21T18:07:50.010Z,63.80
2019-03-21T18:10:27.534Z,62.80
2019-03-21T18:12:57.723Z,62.90
2019-03-21T18:15:27.591Z,63.30
2019-03-21T18:17:58.206Z,64.10
2019-03-21T18:20:27.820Z,65.00
2019-03-21T18:22:57.507Z,65.50
2019-03-21T18:25:27.167Z,65.70
2019-03-21T18:27:56.622Z,66.30
2019-03-21T18:30:26.326Z,66.10
2019-03-21T18:32:55.786Z,66.60
2019-03-21T18:35:25.819Z,66.80
2019-03-21T18:37:55.457Z,66.90
2019-03-21T18:40:24.970Z,66.50
2019-03-21T18:42:54.647Z,66.30
2019-03-21T18:45:24.383Z,65.70
2019-03-21T18:47:53.909Z,66.10
2019-03-21T18:50:23.531Z,66.20
2019-03-21T18:52:53.126Z,66.70
2019-03-21T18:55:22.735Z,65.80
2019-03-21T18:57:52.203Z,67.10
2019-03-21T19:00:21.889Z,66.40
2019-03-21T19:02:51.494Z,66.80
2019-03-21T19:05:20.989Z,66.70
2019-03-21T19:07:50.655Z,67.70
2019-03-21T19:10:20.217Z,66.90
2019-03-21T19:12:49.888Z,67.10
2019-03-21T19:15:19.464Z,70.10
2019-03-21T19:17:49.135Z,71.00
2019-03-21T19:20:19.194Z,71.30
2019-03-21T19:22:49.000Z,71.80
2019-03-21T19:25:19.763Z,72.00
2019-03-21T19:27:49.482Z,68.80
2019-03-21T19:30:19.400Z,69.20
2019-03-21T19:32:49.028Z,72.00
2019-03-21T19:35:18.724Z,70.30
2019-03-21T19:37:48.336Z,70.80
2019-03-21T19:40:18.605Z,72.90
2019-03-21T19:42:48.148Z,73.60
2019-03-21T19:45:18.760Z,74.10
2019-03-21T19:47:48.459Z,75.10
2019-03-21T19:50:18.515Z,75.60
2019-03-21T19:52:48.246Z,75.90
2019-03-21T19:55:29.708Z,77.70
2019-03-21T19:57:49.384Z,76.90
2019-03-21T20:00:19.861Z,77.80
2019-03-21T20:02:49.529Z,78.50
2019-03-21T20:05:19.264Z,79.00
2019-03-21T20:07:48.879Z,78.40
2019-03-21T20:10:18.683Z,79.00
2019-03-21T20:12:48.278Z,80.10
2019-03-21T20:15:18.742Z,80.90
2019-03-21T20:17:48.331Z,80.10
2019-03-21T20:20:18.793Z,79.60
2019-03-21T20:22:48.527Z,80.40
2019-03-21T20:25:18.325Z,80.40
2019-03-21T20:27:48.031Z,81.20
2019-03-21T20:30:18.538Z,82.10
2019-03-21T20:32:48.474Z,81.90
2019-03-21T20:35:18.327Z,82.50
2019-03-21T20:37:48.092Z,83.80
2019-03-21T20:40:19.031Z,82.30
2019-03-21T20:42:48.845Z,82.40
2019-03-21T20:45:18.970Z,83.30
2019-03-21T20:47:48.678Z,82.60
2019-03-21T20:50:19.197Z,79.30
2019-03-21T20:52:49.015Z,81.90
2019-03-21T20:55:19.003Z,83.10
2019-03-21T20:57:49.042Z,83.30
2019-03-21T21:00:20.766Z,83.20
2019-03-21T21:02:51.085Z,82.40
2019-03-21T21:05:22.904Z,81.00
2019-03-21T21:07:52.070Z,83.30
2019-03-21T21:10:21.677Z,84.10
2019-03-21T21:12:51.285Z,83.80
2019-03-21T21:15:20.933Z,83.90
2019-03-21T21:17:50.503Z,84.00
2019-03-21T21:20:20.279Z,83.90
2019-03-21T21:22:49.818Z,83.70
2019-03-21T21:25:19.456Z,83.90
2019-03-21T21:27:50.247Z,84.60
2019-03-21T21:30:20.383Z,86.20
2019-03-21T21:35:25.901Z,87.70
2019-03-21T21:37:55.367Z,87.20
2019-03-21T21:40:24.979Z,88.20
2019-03-21T21:42:54.595Z,88.20
2019-03-21T21:45:24.229Z,88.80
2019-03-21T21:47:53.731Z,89.70
2019-03-21T21:50:23.293Z,88.60
2019-03-21T21:52:52.863Z,89.50
2019-03-21T21:55:22.473Z,89.50
2019-03-21T21:57:52.002Z,87.00
2019-03-21T22:00:21.827Z,87.90
2019-03-21T22:02:51.476Z,87.40
2019-03-21T22:05:21.322Z,88.40
2019-03-21T22:07:50.951Z,87.80
2019-03-21T22:10:20.472Z,87.90
2019-03-21T22:12:50.036Z,88.60
2019-03-21T22:15:19.622Z,87.50
2019-03-21T22:17:49.225Z,86.10
2019-03-21T22:20:19.094Z,85.60
2019-03-21T22:22:48.728Z,88.00
2019-03-21T22:25:37.125Z,87.30
2019-03-21T22:28:06.727Z,88.00
2019-03-21T22:30:36.330Z,88.90
2019-03-21T22:33:05.877Z,89.30
2019-03-21T22:35:35.407Z,90.20
2019-03-21T22:38:05.067Z,90.60
2019-03-21T22:40:34.659Z,91.60
2019-03-21T22:43:04.243Z,91.50
2019-03-21T22:45:33.779Z,91.00
2019-03-21T22:48:03.366Z,91.00
2019-03-21T22:50:32.980Z,90.40
2019-03-21T22:53:02.430Z,91.00
2019-03-21T22:55:31.941Z,91.40
2019-03-21T22:58:01.392Z,91.90
2019-03-21T23:00:42.480Z,92.30
2019-03-21T23:03:13.244Z,92.50
2019-03-21T23:05:42.857Z,92.50
2019-03-21T23:08:12.495Z,92.40
2019-03-21T23:10:42.082Z,93.30
2019-03-21T23:13:11.690Z,93.10
2019-03-21T23:15:41.210Z,93.90
2019-03-21T23:18:10.822Z,94.20
2019-03-21T23:20:40.351Z,94.80
2019-03-21T23:23:09.979Z,95.00
2019-03-21T23:25:39.511Z,94.90
2019-03-21T23:28:09.298Z,95.50
